createdAt,value
2022-08-22T00:01:15.293Z,2.63
2022-08-22T00:03:01.919Z,2.60
2022-08-22T00:03:11.646Z,2.25
2022-08-22T00:06:42.246Z,2.25
2022-08-22T00:11:43.831Z,2.10
2022-08-22T00:16:56.145Z,2.45
2022-08-22T00:22:18.826Z,2.47
2022-08-22T00:27:34.125Z,2.33
2022-08-22T00:32:45.737Z,2.60
2022-08-22T00:38:02.588Z,3.80
2022-08-22T00:43:09.982Z,3.10
2022-08-22T00:48:42.500Z,2.75
2022-08-22T00:53:56.018Z,3.55
2022-08-22T00:59:30.387Z,3.47
2022-08-22T01:05:10.187Z,3.63
2022-08-22T01:10:17.594Z,4.05
2022-08-22T01:15:24.691Z,3.03
2022-08-22T01:20:59.267Z,3.20
2022-08-22T01:26:15.828Z,3.25
2022-08-22T01:31:29.814Z,3.78
2022-08-22T01:37:07.547Z,3.75
2022-08-22T01:42:15.329Z,3.20
2022-08-22T01:47:26.859Z,2.80
2022-08-22T01:52:57.750Z,3.95
2022-08-22T01:58:13.284Z,3.80
2022-08-22T02:03:30.281Z,2.97
2022-08-22T02:08:44.747Z,3.40
2022-08-22T02:14:00.174Z,4.22
2022-08-22T02:19:12.061Z,3.60
2022-08-22T02:24:26.253Z,5.65
2022-08-22T02:34:54.913Z,5.40
2022-08-22T02:40:10.457Z,5.75
2022-08-22T02:45:17.730Z,4.95
2022-08-22T02:50:34.461Z,5.85
2022-08-22T02:55:43.067Z,6.40
2022-08-22T03:00:58.699Z,7.13
2022-08-22T03:06:26.511Z,5.75
2022-08-22T03:11:31.996Z,5.25
2022-08-22T03:16:55.236Z,5.22
2022-08-22T03:22:13.307Z,5.57
2022-08-22T03:27:33.479Z,5.38
2022-08-22T03:32:59.398Z,5.97
2022-08-22T03:38:33.240Z,5.68
2022-08-22T03:48:42.234Z,5.80
2022-08-22T03:54:08.352Z,5.10
2022-08-22T03:59:41.001Z,4.88
2022-08-22T04:05:02.568Z,4.70
2022-08-22T04:10:35.982Z,4.88
2022-08-22T04:16:00.537Z,4.38
2022-08-22T04:21:08.165Z,4.93
2022-08-22T04:26:38.056Z,4.40
2022-08-22T04:31:50.284Z,3.90
2022-08-22T04:37:03.985Z,3.65
2022-08-22T04:42:36.690Z,4.00
2022-08-22T04:47:55.775Z,4.43
2022-08-22T04:53:12.831Z,3.97
2022-08-22T04:58:35.662Z,4.80
2022-08-22T05:03:45.062Z,3.78
2022-08-22T05:08:53.638Z,3.88
2022-08-22T05:14:00.036Z,3.60
2022-08-22T05:19:07.292Z,3.75
2022-08-22T05:24:14.956Z,3.67
2022-08-22T05:29:23.660Z,4.13
2022-08-22T05:34:34.485Z,3.17
2022-08-22T05:39:39.928Z,4.00
2022-08-22T05:44:42.553Z,4.63
2022-08-22T05:50:02.171Z,4.45
2022-08-22T05:55:21.279Z,3.28
2022-08-22T06:00:31.676Z,3.33
2022-08-22T06:05:39.271Z,2.92
2022-08-22T06:10:49.593Z,2.47
2022-08-22T06:15:59.817Z,2.92
2022-08-22T06:21:06.539Z,2.60
2022-08-22T06:26:20.690Z,1.90
2022-08-22T06:31:34.351Z,1.65
2022-08-22T06:36:39.278Z,2.30
2022-08-22T06:41:53.809Z,2.15
2022-08-22T06:46:58.827Z,1.63
2022-08-22T06:52:06.576Z,2.20
2022-08-22T06:57:48.214Z,1.52
2022-08-22T07:02:59.157Z,1.88
2022-08-22T07:08:16.193Z,1.50
2022-08-22T07:13:19.894Z,1.55
2022-08-22T07:18:25.419Z,1.63
2022-08-22T07:23:36.678Z,2.10
2022-08-22T07:29:01.977Z,1.50
2022-08-22T07:34:31.887Z,1.52
2022-08-22T07:39:39.082Z,1.38
2022-08-22T07:45:07.229Z,1.20
2022-08-22T07:50:14.497Z,1.35
2022-08-22T07:55:22.821Z,1.70
2022-08-22T08:00:25.737Z,1.77
2022-08-22T08:05:32.213Z,1.13
2022-08-22T08:10:37.333Z,1.80
2022-08-22T08:15:40.479Z,1.52
2022-08-22T08:20:42.578Z,1.10
2022-08-22T08:26:15.943Z,1.55
2022-08-22T08:37:01.063Z,1.75
2022-08-22T08:42:08.614Z,1.67
2022-08-22T08:47:37.172Z,1.60
2022-08-22T08:53:11.806Z,1.67
2022-08-22T08:58:38.070Z,1.50
2022-08-22T09:03:45.790Z,1.67
2022-08-22T09:09:07.670Z,1.67
2022-08-22T09:14:27.066Z,1.80
2022-08-22T09:19:53.261Z,1.52
2022-08-22T09:25:18.944Z,1.52
2022-08-22T09:30:43.750Z,1.60
2022-08-22T09:36:05.055Z,1.70
2022-08-22T09:41:20.455Z,1.45
2022-08-22T09:46:31.458Z,1.33
2022-08-22T09:51:46.105Z,1.27
2022-08-22T09:57:17.882Z,2.13
2022-08-22T10:02:36.110Z,1.50
2022-08-22T10:07:37.891Z,1.50
2022-08-22T10:13:00.708Z,1.30
2022-08-22T10:18:14.744Z,1.73
2022-08-22T10:23:42.260Z,1.40
2022-08-22T10:29:05.738Z,1.40
2022-08-22T10:34:17.032Z,2.30
2022-08-22T10:39:28.340Z,1.30
2022-08-22T10:49:56.547Z,1.58
2022-08-22T10:55:09.923Z,1.42
2022-08-22T11:00:45.983Z,1.35
2022-08-22T11:05:50.858Z,1.45
2022-08-22T11:11:11.080Z,1.27
2022-08-22T11:16:36.733Z,1.20
2022-08-22T11:22:03.645Z,1.80
2022-08-22T11:27:17.615Z,1.10
2022-08-22T11:33:01.436Z,1.15
2022-08-22T11:38:45.222Z,1.40
2022-08-22T11:44:03.364Z,1.42
2022-08-22T11:49:33.890Z,1.27
2022-08-22T11:54:59.151Z,1.52
2022-08-22T12:00:36.226Z,1.58
2022-08-22T12:06:15.085Z,1.10
2022-08-22T12:11:35.717Z,1.42
2022-08-22T12:17:06.986Z,1.98
2022-08-22T12:22:35.226Z,1.08
2022-08-22T12:28:15.846Z,1.58
2022-08-22T12:33:42.723Z,1.80
2022-08-22T12:39:12.090Z,1.33
2022-08-22T12:44:26.111Z,1.30
2022-08-22T12:49:50.046Z,1.35
2022-08-22T12:55:31.398Z,1.45
2022-08-22T13:00:36.939Z,1.67
2022-08-22T13:05:44.442Z,1.33
2022-08-22T13:10:56.840Z,1.63
2022-08-22T13:16:05.373Z,1.70
2022-08-22T13:21:14.505Z,1.20
2022-08-22T13:26:33.649Z,1.50
2022-08-22T13:31:40.983Z,1.40
2022-08-22T13:36:51.666Z,0.90
2022-08-22T13:41:59.780Z,1.52
2022-08-22T13:47:14.303Z,1.60
2022-08-22T13:52:38.211Z,1.75
2022-08-22T13:57:51.967Z,1.45
2022-08-22T14:03:21.224Z,1.85
2022-08-22T14:08:25.847Z,1.50
2022-08-22T14:13:55.500Z,1.52
2022-08-22T14:19:00.636Z,1.25
2022-08-22T14:24:32.174Z,2.08
2022-08-22T14:30:01.284Z,1.58
2022-08-22T14:35:34.710Z,1.40
2022-08-22T14:40:40.947Z,1.42
2022-08-22T14:45:53.841Z,1.60
2022-08-22T14:51:08.558Z,1.95
2022-08-22T14:56:12.146Z,1.50
2022-08-22T15:01:17.232Z,2.10
2022-08-22T15:06:47.681Z,1.58
2022-08-22T15:11:50.202Z,1.52
2022-08-22T15:16:57.503Z,2.15
2022-08-22T15:22:29.544Z,1.42
2022-08-22T15:27:34.296Z,1.60
2022-08-22T15:32:41.713Z,1.65
2022-08-22T15:37:55.125Z,1.92
2022-08-22T15:42:58.328Z,1.38
2022-08-22T15:48:04.486Z,1.67
2022-08-22T15:53:10.586Z,1.33
2022-08-22T15:58:34.874Z,1.90
2022-08-22T16:03:45.007Z,1.90
2022-08-22T16:08:52.578Z,1.42
2022-08-22T16:14:18.788Z,1.90
2022-08-22T16:19:26.236Z,1.73
2022-08-22T16:24:33.865Z,1.60
2022-08-22T16:29:44.891Z,1.48
2022-08-22T16:34:48.540Z,1.55
2022-08-22T16:40:03.127Z,1.25
2022-08-22T16:45:27.853Z,1.50
2022-08-22T16:50:38.552Z,1.23
2022-08-22T16:55:50.740Z,1.63
2022-08-22T17:01:23.680Z,1.52
2022-08-22T17:06:34.892Z,1.15
2022-08-22T17:12:02.100Z,1.67
2022-08-22T17:17:59.763Z,1.52
2022-08-22T17:23:53.065Z,1.58
2022-08-22T17:29:20.750Z,1.60
2022-08-22T17:34:47.406Z,1.75
2022-08-22T17:40:10.048Z,2.00
2022-08-22T17:45:45.333Z,2.03
2022-08-22T17:50:54.991Z,1.60
2022-08-22T17:56:11.729Z,1.27
2022-08-22T18:01:21.506Z,2.45
2022-08-22T18:06:29.017Z,1.67
2022-08-22T18:11:31.083Z,1.65
2022-08-22T18:16:42.457Z,1.50
2022-08-22T18:21:48.905Z,1.83
2022-08-22T18:27:04.623Z,1.45
2022-08-22T18:32:19.488Z,1.40
2022-08-22T18:37:32.854Z,1.38
2022-08-22T18:42:45.240Z,1.77
2022-08-22T18:47:55.914Z,2.35
2022-08-22T18:52:59.340Z,1.90
2022-08-22T18:58:31.854Z,1.35
2022-08-22T19:03:48.706Z,2.07
2022-08-22T19:09:20.108Z,1.58
2022-08-22T19:14:24.851Z,1.45
2022-08-22T19:20:06.611Z,1.80
2022-08-22T19:25:27.832Z,1.40
2022-08-22T19:30:35.414Z,1.60
2022-08-22T19:35:42.043Z,1.80
2022-08-22T19:40:46.269Z,1.83
2022-08-22T19:45:48.016Z,1.70
2022-08-22T19:51:07.413Z,1.80
2022-08-22T19:56:23.098Z,1.77
2022-08-22T20:01:51.270Z,2.13
2022-08-22T20:07:01.278Z,1.90
2022-08-22T20:12:15.689Z,1.88
2022-08-22T20:17:26.263Z,1.70
2022-08-22T20:22:34.446Z,1.48
2022-08-22T20:27:41.397Z,1.70
2022-08-22T20:33:01.916Z,2.10
2022-08-22T20:38:11.267Z,1.50
2022-08-22T20:43:45.392Z,2.00
2022-08-22T20:48:50.149Z,2.03
2022-08-22T20:53:54.243Z,1.63
2022-08-22T20:59:00.543Z,2.22
2022-08-22T21:04:04.149Z,1.95
2022-08-22T21:09:35.668Z,1.93
2022-08-22T21:14:46.151Z,1.85
2022-08-22T21:19:48.320Z,2.20
2022-08-22T21:24:59.205Z,1.50
2022-08-22T21:30:04.717Z,2.05
2022-08-22T21:35:19.403Z,1.75
2022-08-22T21:40:32.367Z,1.83
2022-08-22T21:45:41.199Z,2.47
2022-08-22T21:50:42.875Z,1.63
2022-08-22T21:55:46.641Z,1.90
2022-08-22T22:01:23.200Z,2.17
2022-08-22T22:06:27.423Z,1.88
2022-08-22T22:11:29.155Z,2.13
2022-08-22T22:16:32.499Z,1.92
2022-08-22T22:21:34.060Z,1.60
2022-08-22T22:26:35.892Z,2.08
2022-08-22T22:31:37.523Z,1.75
2022-08-22T22:36:40.576Z,2.33
2022-08-22T22:41:42.100Z,2.40
2022-08-22T22:46:43.647Z,1.75
2022-08-22T22:51:45.282Z,2.05
2022-08-22T22:56:47.985Z,1.70
2022-08-22T23:02:09.121Z,2.15
2022-08-22T23:07:14.534Z,2.60
2022-08-22T23:12:16.221Z,1.90
2022-08-22T23:17:18.519Z,2.08
2022-08-22T23:22:20.314Z,2.25
2022-08-22T23:27:21.856Z,1.80
2022-08-22T23:32:23.354Z,1.70
2022-08-22T23:37:26.047Z,2.20
2022-08-22T23:42:29.082Z,2.13
2022-08-22T23:47:30.604Z,2.22
2022-08-22T23:52:32.158Z,1.80
2022-08-22T23:57:33.652Z,2.15
